»·PEaware :: DAL1443 KIAH-KATL

DAL1443 :: KIAH-KATL

FLIGHT INFORMATION

Flight Status: Arrived
Operator:
Delta Air Lines
More flights by this operator :: More flights under this callsign
Pilot: Daniel C. (12704)
Aircraft: BOEING 717-200
(B712)
More flights by this aircraft type
Origin: KIAH G Bush Intercontinental/Houst
United States
Destination: KATL Hartsfield-Jackson Atlanta
United States
More flights between these airports :: More routes between these airports
Route: MMUGS4 LCH Q24 PAYTN HOLEE RAGGZ1
File this flight plan on PilotEdge
Remarks: / L
Altitude:
(Current/Filed)
330ft
Speed:
(Current/Filed)
480kts
Departed: 11-Jul-17 02:18 PM
Arrived: 11-Jul-17 04:06 PM
Distance/Time
Traveled:
597nm/1:48
Distance/Time
To Go:
Arrived

Flight Plot

Page will automatically refresh every two minutes.

Flight plan parsing failed; only flown route is shown


Map Options




Map Legend


Flown Route
Filed Route
Departure Airport
Arrival Airport
Navaid (VOR, NDB)
Fix

Horizontal Profiles

Position Reports

Time Latitude Longitude Heading Altitude Ground
Speed
11-Jul-17 13:52 29.988181 -95.348854 270 105ft 0kts
11-Jul-17 13:53 29.988181 -95.348854 270 105ft 0kts
11-Jul-17 13:54 29.988181 -95.348854 270 105ft 0kts
11-Jul-17 13:55 29.988181 -95.348854 270 105ft 0kts
11-Jul-17 13:56 29.988181 -95.348854 270 105ft 0kts
11-Jul-17 13:57 29.988181 -95.348854 270 105ft 0kts
11-Jul-17 13:58 29.988181 -95.348854 270 105ft 0kts
11-Jul-17 13:59 29.988181 -95.348854 270 105ft 0kts
11-Jul-17 14:00 29.988181 -95.348854 270 105ft 0kts
11-Jul-17 14:01 29.988181 -95.348854 270 105ft 0kts
11-Jul-17 14:02 29.988181 -95.348854 270 105ft 0kts
11-Jul-17 14:03 29.988181 -95.348854 270 105ft 0kts
11-Jul-17 14:04 29.988181 -95.348854 270 105ft 0kts
11-Jul-17 14:05 29.988181 -95.348854 270 105ft 0kts
11-Jul-17 14:06 29.988181 -95.348854 270 105ft 0kts
11-Jul-17 14:07 29.988181 -95.348854 270 105ft 0kts
11-Jul-17 14:08 29.988181 -95.348477 269 105ft 2kts
11-Jul-17 14:09 29.988112 -95.347731 298 105ft 0kts
11-Jul-17 14:10 29.988112 -95.347731 298 105ft 0kts
11-Jul-17 14:11 29.988112 -95.347731 298 105ft 0kts
11-Jul-17 14:12 29.988112 -95.347731 298 105ft 0kts
11-Jul-17 14:13 29.988112 -95.347732 298 105ft 0kts
11-Jul-17 14:14 29.988112 -95.347732 298 105ft 0kts
11-Jul-17 14:15 29.989769 -95.348148 0 105ft 10kts
11-Jul-17 14:16 29.990753 -95.352790 270 105ft 18kts
11-Jul-17 14:17 29.989409 -95.354933 187 106ft 0kts
11-Jul-17 14:18 29.987447 -95.356844 238 106ft 20kts
11-Jul-17 14:19 29.986647 -95.357084 151 106ft 0kts
11-Jul-17 14:20 29.986233 -95.356819 150 106ft 33kts
11-Jul-17 14:21 29.952761 -95.331739 92 858ft 212kts
11-Jul-17 14:22 30.010906 -95.296127 65 3197ft 268kts
11-Jul-17 14:23 29.985829 -95.224194 159 5854ft 277kts
11-Jul-17 14:24 29.907785 -95.229275 175 8824ft 294kts
11-Jul-17 14:25 29.843992 -95.168336 124 11091ft 339kts
11-Jul-17 14:26 29.820044 -95.053832 91 11166ft 389kts
11-Jul-17 14:27 29.831094 -94.930908 72 11166ft 388kts
11-Jul-17 14:28 29.862760 -94.812066 72 11155ft 388kts
11-Jul-17 14:29 29.894136 -94.693073 72 11148ft 388kts
11-Jul-17 14:30 29.925595 -94.573651 72 11142ft 388kts
11-Jul-17 14:31 29.956836 -94.454579 72 11135ft 388kts
11-Jul-17 14:32 29.987993 -94.335351 72 11124ft 389kts
11-Jul-17 14:33 30.007259 -94.212300 81 11131ft 390kts
11-Jul-17 14:34 30.022142 -94.088464 81 11152ft 392kts
11-Jul-17 14:35 30.037477 -93.962967 81 12917ft 398kts
11-Jul-17 14:36 30.053362 -93.834907 81 14717ft 406kts
11-Jul-17 14:37 30.069359 -93.704981 81 16486ft 412kts
11-Jul-17 14:38 30.085557 -93.572297 81 18144ft 420kts
11-Jul-17 14:39 30.099173 -93.459872 81 19299ft 429kts
11-Jul-17 14:40 30.115714 -93.322186 81 20584ft 437kts
11-Jul-17 14:41 30.132497 -93.181237 81 21730ft 446kts
11-Jul-17 14:42 30.154350 -93.039314 76 22758ft 453kts
11-Jul-17 14:43 30.182510 -92.896348 76 23676ft 460kts
11-Jul-17 14:44 30.210869 -92.750798 76 24510ft 466kts
11-Jul-17 14:45 30.244075 -92.579211 76 25368ft 472kts
11-Jul-17 14:46 30.267900 -92.455310 76 25919ft 476kts
11-Jul-17 14:47 30.301467 -92.279608 76 26674ft 479kts
11-Jul-17 14:48 30.325247 -92.154314 76 27346ft 478kts
11-Jul-17 14:49 30.353537 -92.004353 76 28186ft 476kts
11-Jul-17 14:50 30.381653 -91.854324 76 29056ft 475kts
11-Jul-17 14:51 30.409411 -91.705210 76 29930ft 473kts
11-Jul-17 14:52 30.436922 -91.556438 76 30802ft 472kts
11-Jul-17 14:53 30.464314 -91.407319 76 31663ft 472kts
11-Jul-17 14:54 30.492886 -91.259271 74 32517ft 471kts
11-Jul-17 14:55 30.526552 -91.113259 74 33110ft 470kts
11-Jul-17 14:56 30.560007 -90.966797 74 33117ft 468kts
11-Jul-17 14:57 30.593174 -90.820800 74 33120ft 468kts
11-Jul-17 14:58 30.626192 -90.674645 74 33123ft 469kts
11-Jul-17 14:59 30.659163 -90.527873 74 33125ft 469kts
11-Jul-17 15:00 30.691873 -90.381426 74 33126ft 469kts
11-Jul-17 15:01 30.724429 -90.234835 74 33127ft 469kts
11-Jul-17 15:02 30.756921 -90.087691 74 33130ft 469kts
11-Jul-17 15:03 30.789156 -89.940867 74 33134ft 469kts
11-Jul-17 15:04 30.821245 -89.793837 74 33135ft 470kts
11-Jul-17 15:05 30.853336 -89.645950 75 33132ft 470kts
11-Jul-17 15:06 30.885151 -89.498460 75 33126ft 471kts
11-Jul-17 15:07 30.916865 -89.350562 75 33125ft 471kts
11-Jul-17 15:08 30.948515 -89.202079 75 33119ft 471kts
11-Jul-17 15:09 30.979931 -89.053811 75 33118ft 472kts
11-Jul-17 15:10 31.017516 -88.907811 62 33118ft 471kts
11-Jul-17 15:11 31.078363 -88.771964 61 32853ft 474kts
11-Jul-17 15:12 31.138627 -88.636042 61 31448ft 471kts
11-Jul-17 15:13 31.198903 -88.499669 61 29953ft 474kts
11-Jul-17 15:14 31.259606 -88.361818 61 28453ft 478kts
11-Jul-17 15:15 31.320408 -88.223230 61 27166ft 482kts
11-Jul-17 15:16 31.381501 -88.083452 62 26070ft 483kts
11-Jul-17 15:17 31.442147 -87.944198 62 24967ft 475kts
11-Jul-17 15:18 31.510379 -87.814585 52 24132ft 466kts
11-Jul-17 15:19 31.586471 -87.690369 53 24124ft 468kts
11-Jul-17 15:20 31.661748 -87.566476 53 24126ft 472kts
11-Jul-17 15:21 31.739441 -87.438146 53 24126ft 488kts
11-Jul-17 15:22 31.818048 -87.307889 53 24124ft 487kts
11-Jul-17 15:23 31.896295 -87.177793 53 24122ft 487kts
11-Jul-17 15:24 31.974397 -87.047498 53 24121ft 487kts
11-Jul-17 15:25 32.052637 -86.916525 53 24122ft 488kts
11-Jul-17 15:26 32.130484 -86.785766 53 24121ft 487kts
11-Jul-17 15:27 32.208196 -86.654784 53 24122ft 487kts
11-Jul-17 15:28 32.286001 -86.523203 54 24125ft 487kts
11-Jul-17 15:29 32.363303 -86.391915 54 24121ft 487kts
11-Jul-17 15:30 32.440512 -86.260438 54 24117ft 487kts
11-Jul-17 15:31 32.517895 -86.128150 54 24126ft 487kts
11-Jul-17 15:32 32.594934 -85.995996 54 24137ft 487kts
11-Jul-17 15:33 32.671916 -85.863389 54 24135ft 489kts
11-Jul-17 15:34 32.748657 -85.730851 54 22812ft 479kts
11-Jul-17 15:35 32.821444 -85.604681 55 20996ft 446kts
11-Jul-17 15:36 32.890296 -85.484973 55 19209ft 432kts
11-Jul-17 15:37 32.957344 -85.368658 55 17306ft 418kts
11-Jul-17 15:38 33.034505 -85.238950 54 15094ft 404kts
11-Jul-17 15:39 33.083021 -85.157423 54 13502ft 327kts
11-Jul-17 15:40 33.135418 -85.069170 54 11530ft 329kts
11-Jul-17 15:41 33.192081 -84.985498 43 10081ft 310kts
11-Jul-17 15:42 33.252129 -84.918045 43 10072ft 292kts
11-Jul-17 15:43 33.311263 -84.851477 43 10074ft 288kts
11-Jul-17 15:44 33.368550 -84.796757 28 9859ft 252kts
11-Jul-17 15:45 33.425309 -84.762947 26 9633ft 203kts
11-Jul-17 15:46 33.476073 -84.733101 26 9222ft 205kts
11-Jul-17 15:47 33.527436 -84.702858 27 8444ft 204kts
11-Jul-17 15:48 33.586936 -84.667783 26 7634ft 202kts
11-Jul-17 15:49 33.628777 -84.643091 26 7050ft 199kts
11-Jul-17 15:50 33.678158 -84.613584 30 6340ft 194kts
11-Jul-17 15:51 33.716877 -84.569343 58 5641ft 192kts
11-Jul-17 15:52 33.732022 -84.507923 85 4955ft 194kts
11-Jul-17 15:53 33.732769 -84.443454 90 4259ft 192kts
11-Jul-17 15:54 33.732733 -84.379260 90 3557ft 191kts
11-Jul-17 15:55 33.732752 -84.315929 91 2680ft 186kts
11-Jul-17 15:56 33.732777 -84.255019 90 2632ft 179kts
11-Jul-17 15:57 33.732833 -84.195146 90 2635ft 178kts
11-Jul-17 15:58 33.732913 -84.135396 91 2651ft 183kts
11-Jul-17 15:59 33.732926 -84.072718 90 2636ft 189kts
11-Jul-17 16:00 33.753410 -84.021838 11 2566ft 193kts
11-Jul-17 16:01 33.789212 -84.062668 284 1980ft 188kts
11-Jul-17 16:02 33.774658 -84.119381 221 2256ft 185kts
11-Jul-17 16:03 33.731399 -84.150074 206 2652ft 185kts
11-Jul-17 16:04 33.686076 -84.180010 208 2634ft 189kts
11-Jul-17 16:05 33.651332 -84.225134 254 2638ft 193kts
11-Jul-17 16:06 33.649779 -84.289984 269 2635ft 194kts
11-Jul-17 16:07 33.649665 -84.345083 268 2103ft 154kts
11-Jul-17 16:08 33.649607 -84.396001 268 1296ft 150kts
11-Jul-17 16:09 33.649589 -84.429354 267 1034ft 24kts
11-Jul-17 16:10 33.648261 -84.435172 232 1034ft 11kts
11-Jul-17 16:11 33.644166 -84.437934 207 1034ft 11kts
11-Jul-17 16:12 33.643811 -84.438646 267 1034ft 0kts
11-Jul-17 16:13 33.643811 -84.438647 267 1034ft 0kts

Navigation Log

Ident Type
Flight plan parsing failed, navigation log unavailable